sensor_id;sensor_type;location;lat;lon;timestamp;temperature;humidity
70145;DHT22;57510;51.068;3.872;2022-12-17T00:02:06;-2.50;99.90
70145;DHT22;57510;51.068;3.872;2022-12-17T00:04:50;-2.50;99.90
70145;DHT22;57510;51.068;3.872;2022-12-17T00:07:34;-2.50;99.90
70145;DHT22;57510;51.068;3.872;2022-12-17T00:10:19;-2.50;99.90
70145;DHT22;57510;51.068;3.872;2022-12-17T00:13:15;-2.60;99.90
70145;DHT22;57510;51.068;3.872;2022-12-17T00:16:00;-2.60;99.90
70145;DHT22;57510;51.068;3.872;2022-12-17T00:18:51;-2.60;99.90
70145;DHT22;57510;51.068;3.872;2022-12-17T00:21:37;-2.60;99.90
70145;DHT22;57510;51.068;3.872;2022-12-17T00:24:23;-2.70;99.90
70145;DHT22;57510;51.068;3.872;2022-12-17T00:27:24;-2.70;99.90
70145;DHT22;57510;51.068;3.872;2022-12-17T00:30:09;-2.70;99.90
70145;DHT22;57510;51.068;3.872;2022-12-17T00:35:41;-2.70;99.90
70145;DHT22;57510;51.068;3.872;2022-12-17T00:38:25;-2.70;99.90
70145;DHT22;57510;51.068;3.872;2022-12-17T00:41:09;-2.60;99.90
70145;DHT22;57510;51.068;3.872;2022-12-17T00:43:54;-2.70;99.90
70145;DHT22;57510;51.068;3.872;2022-12-17T00:46:38;-2.70;99.90
70145;DHT22;57510;51.068;3.872;2022-12-17T00:49:22;-2.70;99.90
70145;DHT22;57510;51.068;3.872;2022-12-17T00:52:06;-2.80;99.90
70145;DHT22;57510;51.068;3.872;2022-12-17T00:54:50;-2.80;99.90
70145;DHT22;57510;51.068;3.872;2022-12-17T00:57:34;-2.80;99.90
70145;DHT22;57510;51.068;3.872;2022-12-17T01:00:20;-2.90;99.90
70145;DHT22;57510;51.068;3.872;2022-12-17T01:03:05;-2.90;99.90
70145;DHT22;57510;51.068;3.872;2022-12-17T01:05:52;-2.80;99.90
70145;DHT22;57510;51.068;3.872;2022-12-17T01:08:36;-2.80;99.90
70145;DHT22;57510;51.068;3.872;2022-12-17T01:11:21;-2.80;99.90
70145;DHT22;57510;51.068;3.872;2022-12-17T01:14:05;-2.90;99.90
70145;DHT22;57510;51.068;3.872;2022-12-17T01:16:50;-2.80;99.90
70145;DHT22;57510;51.068;3.872;2022-12-17T01:19:34;-2.80;99.90
70145;DHT22;57510;51.068;3.872;2022-12-17T01:22:18;-2.80;99.90
70145;DHT22;57510;51.068;3.872;2022-12-17T01:25:03;-2.80;99.90
70145;DHT22;57510;51.068;3.872;2022-12-17T01:27:47;-2.80;99.90
70145;DHT22;57510;51.068;3.872;2022-12-17T01:30:36;-2.80;99.90
70145;DHT22;57510;51.068;3.872;2022-12-17T01:33:20;-2.80;99.90
70145;DHT22;57510;51.068;3.872;2022-12-17T01:38:54;-2.90;99.90
70145;DHT22;57510;51.068;3.872;2022-12-17T01:41:38;-2.90;99.90
70145;DHT22;57510;51.068;3.872;2022-12-17T01:47:46;-2.90;99.90
70145;DHT22;57510;51.068;3.872;2022-12-17T01:50:42;-2.90;99.90
70145;DHT22;57510;51.068;3.872;2022-12-17T01:53:28;-3.00;99.90
70145;DHT22;57510;51.068;3.872;2022-12-17T01:56:14;-3.00;99.90
70145;DHT22;57510;51.068;3.872;2022-12-17T01:58:58;-3.00;99.90
70145;DHT22;57510;51.068;3.872;2022-12-17T02:01:44;-3.00;99.90
70145;DHT22;57510;51.068;3.872;2022-12-17T02:04:28;-3.00;99.90
70145;DHT22;57510;51.068;3.872;2022-12-17T02:12:54;-3.10;99.90
70145;DHT22;57510;51.068;3.872;2022-12-17T02:19:16;-3.10;99.90
70145;DHT22;57510;51.068;3.872;2022-12-17T02:21:34;-3.10;99.90
70145;DHT22;57510;51.068;3.872;2022-12-17T02:24:24;-3.10;99.90
70145;DHT22;57510;51.068;3.872;2022-12-17T02:27:10;-3.10;99.90
70145;DHT22;57510;51.068;3.872;2022-12-17T02:29:55;-3.10;99.70
70145;DHT22;57510;51.068;3.872;2022-12-17T02:32:41;-3.10;99.70
70145;DHT22;57510;51.068;3.872;2022-12-17T02:35:32;-3.20;99.60
70145;DHT22;57510;51.068;3.872;2022-12-17T02:38:19;-3.20;99.60
70145;DHT22;57510;51.068;3.872;2022-12-17T02:41:04;-3.20;99.60
70145;DHT22;57510;51.068;3.872;2022-12-17T02:43:49;-3.20;99.50
70145;DHT22;57510;51.068;3.872;2022-12-17T02:46:34;-3.20;99.60
70145;DHT22;57510;51.068;3.872;2022-12-17T02:49:18;-3.20;99.60
70145;DHT22;57510;51.068;3.872;2022-12-17T02:52:02;-3.30;99.70
70145;DHT22;57510;51.068;3.872;2022-12-17T02:54:47;-3.30;99.90
70145;DHT22;57510;51.068;3.872;2022-12-17T02:57:31;-3.30;99.90
70145;DHT22;57510;51.068;3.872;2022-12-17T03:00:15;-3.30;99.90
70145;DHT22;57510;51.068;3.872;2022-12-17T03:02:59;-3.30;99.90
70145;DHT22;57510;51.068;3.872;2022-12-17T03:05:43;-3.30;99.90
70145;DHT22;57510;51.068;3.872;2022-12-17T03:08:28;-3.20;99.90
70145;DHT22;57510;51.068;3.872;2022-12-17T03:11:12;-3.20;99.90
70145;DHT22;57510;51.068;3.872;2022-12-17T03:13:56;-3.20;99.90
70145;DHT22;57510;51.068;3.872;2022-12-17T03:16:40;-3.20;99.90
70145;DHT22;57510;51.068;3.872;2022-12-17T03:19:24;-3.20;99.90
70145;DHT22;57510;51.068;3.872;2022-12-17T03:22:09;-3.20;99.90
70145;DHT22;57510;51.068;3.872;2022-12-17T03:24:53;-3.20;99.90
70145;DHT22;57510;51.068;3.872;2022-12-17T03:27:37;-3.20;99.90
70145;DHT22;57510;51.068;3.872;2022-12-17T03:30:21;-3.20;99.90
70145;DHT22;57510;51.068;3.872;2022-12-17T03:33:07;-3.30;99.50
70145;DHT22;57510;51.068;3.872;2022-12-17T03:35:51;-3.30;99.70
70145;DHT22;57510;51.068;3.872;2022-12-17T03:38:36;-3.40;99.60
70145;DHT22;57510;51.068;3.872;2022-12-17T03:41:20;-3.30;99.70
70145;DHT22;57510;51.068;3.872;2022-12-17T03:44:04;-3.40;99.70
70145;DHT22;57510;51.068;3.872;2022-12-17T03:46:48;-3.40;99.70
70145;DHT22;57510;51.068;3.872;2022-12-17T03:49:32;-3.50;99.70
70145;DHT22;57510;51.068;3.872;2022-12-17T03:52:17;-3.50;99.60
70145;DHT22;57510;51.068;3.872;2022-12-17T03:55:01;-3.50;99.60
70145;DHT22;57510;51.068;3.872;2022-12-17T03:57:45;-3.60;99.60
70145;DHT22;57510;51.068;3.872;2022-12-17T04:00:29;-3.60;99.70
70145;DHT22;57510;51.068;3.872;2022-12-17T04:03:14;-3.60;99.80
70145;DHT22;57510;51.068;3.872;2022-12-17T04:05:58;-3.60;99.70
70145;DHT22;57510;51.068;3.872;2022-12-17T04:08:42;-3.60;99.80
70145;DHT22;57510;51.068;3.872;2022-12-17T04:11:26;-3.60;99.70
70145;DHT22;57510;51.068;3.872;2022-12-17T04:14:18;-3.60;99.70
70145;DHT22;57510;51.068;3.872;2022-12-17T04:17:02;-3.60;99.70
70145;DHT22;57510;51.068;3.872;2022-12-17T04:19:46;-3.60;99.60
70145;DHT22;57510;51.068;3.872;2022-12-17T04:22:31;-3.60;99.70
70145;DHT22;57510;51.068;3.872;2022-12-17T04:25:15;-3.70;99.80
70145;DHT22;57510;51.068;3.872;2022-12-17T04:27:59;-3.60;99.90
70145;DHT22;57510;51.068;3.872;2022-12-17T04:30:43;-3.60;99.80
70145;DHT22;57510;51.068;3.872;2022-12-17T04:33:27;-3.60;99.80
70145;DHT22;57510;51.068;3.872;2022-12-17T04:36:12;-3.50;99.90
70145;DHT22;57510;51.068;3.872;2022-12-17T04:38:56;-3.50;99.90
70145;DHT22;57510;51.068;3.872;2022-12-17T04:41:40;-3.50;99.90
70145;DHT22;57510;51.068;3.872;2022-12-17T04:44:24;-3.40;99.90
70145;DHT22;57510;51.068;3.872;2022-12-17T04:47:09;-3.40;99.80
70145;DHT22;57510;51.068;3.872;2022-12-17T04:49:53;-3.50;99.80
70145;DHT22;57510;51.068;3.872;2022-12-17T04:52:37;-3.50;99.60
70145;DHT22;57510;51.068;3.872;2022-12-17T04:55:21;-3.50;99.70
70145;DHT22;57510;51.068;3.872;2022-12-17T04:58:06;-3.50;99.80
70145;DHT22;57510;51.068;3.872;2022-12-17T05:00:50;-3.50;99.80
70145;DHT22;57510;51.068;3.872;2022-12-17T05:03:35;-3.50;99.80
70145;DHT22;57510;51.068;3.872;2022-12-17T05:06:20;-3.50;99.80
70145;DHT22;57510;51.068;3.872;2022-12-17T05:09:04;-3.50;99.70
70145;DHT22;57510;51.068;3.872;2022-12-17T05:11:48;-3.60;99.60
70145;DHT22;57510;51.068;3.872;2022-12-17T05:14:32;-3.60;99.50
70145;DHT22;57510;51.068;3.872;2022-12-17T05:17:17;-3.60;99.60
70145;DHT22;57510;51.068;3.872;2022-12-17T05:20:01;-3.60;99.60
70145;DHT22;57510;51.068;3.872;2022-12-17T05:22:45;-3.60;99.60
70145;DHT22;57510;51.068;3.872;2022-12-17T05:25:29;-3.60;99.60
70145;DHT22;57510;51.068;3.872;2022-12-17T05:28:16;-3.60;99.70
70145;DHT22;57510;51.068;3.872;2022-12-17T05:31:00;-3.50;99.70
70145;DHT22;57510;51.068;3.872;2022-12-17T05:33:44;-3.50;99.90
70145;DHT22;57510;51.068;3.872;2022-12-17T05:36:28;-3.50;99.80
70145;DHT22;57510;51.068;3.872;2022-12-17T05:39:12;-3.50;99.70
70145;DHT22;57510;51.068;3.872;2022-12-17T05:41:57;-3.50;99.80
70145;DHT22;57510;51.068;3.872;2022-12-17T05:44:41;-3.40;99.90
70145;DHT22;57510;51.068;3.872;2022-12-17T05:47:25;-3.40;99.80
70145;DHT22;57510;51.068;3.872;2022-12-17T05:50:09;-3.50;99.50
70145;DHT22;57510;51.068;3.872;2022-12-17T05:52:59;-3.60;99.40
70145;DHT22;57510;51.068;3.872;2022-12-17T05:55:46;-3.60;99.40
70145;DHT22;57510;51.068;3.872;2022-12-17T05:58:30;-3.70;99.40
70145;DHT22;57510;51.068;3.872;2022-12-17T06:01:15;-3.70;99.40
70145;DHT22;57510;51.068;3.872;2022-12-17T06:03:59;-3.70;99.60
70145;DHT22;57510;51.068;3.872;2022-12-17T06:06:43;-3.70;99.80
70145;DHT22;57510;51.068;3.872;2022-12-17T06:09:27;-3.70;99.90
70145;DHT22;57510;51.068;3.872;2022-12-17T06:12:12;-3.70;99.90
70145;DHT22;57510;51.068;3.872;2022-12-17T06:14:56;-3.60;99.90
70145;DHT22;57510;51.068;3.872;2022-12-17T06:17:40;-3.60;99.90
70145;DHT22;57510;51.068;3.872;2022-12-17T06:20:24;-3.50;99.90
70145;DHT22;57510;51.068;3.872;2022-12-17T06:23:09;-3.50;99.90
70145;DHT22;57510;51.068;3.872;2022-12-17T06:25:54;-3.40;99.90
70145;DHT22;57510;51.068;3.872;2022-12-17T06:28:38;-3.40;99.90
70145;DHT22;57510;51.068;3.872;2022-12-17T06:31:22;-3.40;99.90
70145;DHT22;57510;51.068;3.872;2022-12-17T06:34:07;-3.40;99.90
70145;DHT22;57510;51.068;3.872;2022-12-17T06:36:53;-3.40;99.90
70145;DHT22;57510;51.068;3.872;2022-12-17T06:39:38;-3.30;99.80
70145;DHT22;57510;51.068;3.872;2022-12-17T06:42:22;-3.30;99.80
70145;DHT22;57510;51.068;3.872;2022-12-17T06:45:06;-3.30;99.60
70145;DHT22;57510;51.068;3.872;2022-12-17T06:47:51;-3.40;99.50
70145;DHT22;57510;51.068;3.872;2022-12-17T06:50:35;-3.40;99.50
70145;DHT22;57510;51.068;3.872;2022-12-17T06:53:19;-3.40;99.50
70145;DHT22;57510;51.068;3.872;2022-12-17T06:56:04;-3.40;99.50
70145;DHT22;57510;51.068;3.872;2022-12-17T06:58:48;-3.40;99.60
70145;DHT22;57510;51.068;3.872;2022-12-17T07:01:32;-3.40;99.70
70145;DHT22;57510;51.068;3.872;2022-12-17T07:04:16;-3.40;99.70
70145;DHT22;57510;51.068;3.872;2022-12-17T07:07:01;-3.40;99.60
70145;DHT22;57510;51.068;3.872;2022-12-17T07:09:45;-3.40;99.60
70145;DHT22;57510;51.068;3.872;2022-12-17T07:12:29;-3.40;99.60
70145;DHT22;57510;51.068;3.872;2022-12-17T07:15:17;-3.40;99.50
70145;DHT22;57510;51.068;3.872;2022-12-17T07:18:02;-3.40;99.60
70145;DHT22;57510;51.068;3.872;2022-12-17T07:20:47;-3.40;99.50
70145;DHT22;57510;51.068;3.872;2022-12-17T07:23:31;-3.40;99.60
70145;DHT22;57510;51.068;3.872;2022-12-17T07:26:16;-3.40;99.60
70145;DHT22;57510;51.068;3.872;2022-12-17T07:29:00;-3.40;99.60
70145;DHT22;57510;51.068;3.872;2022-12-17T07:31:44;-3.40;99.60
70145;DHT22;57510;51.068;3.872;2022-12-17T07:34:29;-3.40;99.50
70145;DHT22;57510;51.068;3.872;2022-12-17T07:37:13;-3.30;99.50
70145;DHT22;57510;51.068;3.872;2022-12-17T07:39:57;-3.40;99.50
70145;DHT22;57510;51.068;3.872;2022-12-17T07:42:41;-3.40;99.60
70145;DHT22;57510;51.068;3.872;2022-12-17T07:45:26;-3.40;99.60
70145;DHT22;57510;51.068;3.872;2022-12-17T07:48:10;-3.40;99.60
70145;DHT22;57510;51.068;3.872;2022-12-17T07:50:54;-3.40;99.50
70145;DHT22;57510;51.068;3.872;2022-12-17T07:53:41;-3.40;99.50
70145;DHT22;57510;51.068;3.872;2022-12-17T07:56:25;-3.30;99.50
70145;DHT22;57510;51.068;3.872;2022-12-17T07:59:09;-3.30;99.40
70145;DHT22;57510;51.068;3.872;2022-12-17T08:01:53;-3.40;99.40
70145;DHT22;57510;51.068;3.872;2022-12-17T08:04:38;-3.40;99.50
70145;DHT22;57510;51.068;3.872;2022-12-17T08:07:22;-3.40;99.60
70145;DHT22;57510;51.068;3.872;2022-12-17T08:10:06;-3.30;99.70
70145;DHT22;57510;51.068;3.872;2022-12-17T08:12:54;-3.30;99.70
70145;DHT22;57510;51.068;3.872;2022-12-17T08:15:39;-3.20;99.60
70145;DHT22;57510;51.068;3.872;2022-12-17T08:18:23;-3.30;99.60
70145;DHT22;57510;51.068;3.872;2022-12-17T08:21:09;-3.20;99.70
70145;DHT22;57510;51.068;3.872;2022-12-17T08:23:54;-3.10;99.70
70145;DHT22;57510;51.068;3.872;2022-12-17T08:26:40;-3.10;99.70
70145;DHT22;57510;51.068;3.872;2022-12-17T08:29:24;-3.10;99.60
70145;DHT22;57510;51.068;3.872;2022-12-17T08:32:09;-3.10;99.70
70145;DHT22;57510;51.068;3.872;2022-12-17T08:34:53;-3.00;99.90
70145;DHT22;57510;51.068;3.872;2022-12-17T08:37:37;-3.00;99.90
70145;DHT22;57510;51.068;3.872;2022-12-17T08:40:21;-2.90;99.90
70145;DHT22;57510;51.068;3.872;2022-12-17T08:43:05;-2.80;99.90
70145;DHT22;57510;51.068;3.872;2022-12-17T08:45:50;-2.80;99.90
70145;DHT22;57510;51.068;3.872;2022-12-17T08:48:35;-2.70;99.90
70145;DHT22;57510;51.068;3.872;2022-12-17T08:51:19;-2.70;99.90
70145;DHT22;57510;51.068;3.872;2022-12-17T08:54:04;-2.60;99.90
70145;DHT22;57510;51.068;3.872;2022-12-17T08:56:48;-2.60;99.90
70145;DHT22;57510;51.068;3.872;2022-12-17T08:59:32;-2.50;99.90
70145;DHT22;57510;51.068;3.872;2022-12-17T09:02:16;-2.50;99.90
70145;DHT22;57510;51.068;3.872;2022-12-17T09:05:01;-2.40;99.90
70145;DHT22;57510;51.068;3.872;2022-12-17T09:07:45;-2.30;99.90
70145;DHT22;57510;51.068;3.872;2022-12-17T09:10:29;-2.30;99.90
70145;DHT22;57510;51.068;3.872;2022-12-17T09:13:13;-2.30;99.90
70145;DHT22;57510;51.068;3.872;2022-12-17T09:15:58;-2.30;99.90
70145;DHT22;57510;51.068;3.872;2022-12-17T09:18:42;-2.30;99.90
70145;DHT22;57510;51.068;3.872;2022-12-17T09:21:27;-2.20;99.90
70145;DHT22;57510;51.068;3.872;2022-12-17T09:24:11;-2.20;99.90
70145;DHT22;57510;51.068;3.872;2022-12-17T09:26:55;-2.20;99.90
70145;DHT22;57510;51.068;3.872;2022-12-17T09:29:39;-2.10;99.90
70145;DHT22;57510;51.068;3.872;2022-12-17T09:32:24;-2.00;99.90
70145;DHT22;57510;51.068;3.872;2022-12-17T09:35:08;-1.90;99.90
70145;DHT22;57510;51.068;3.872;2022-12-17T09:37:52;-1.80;99.90
70145;DHT22;57510;51.068;3.872;2022-12-17T09:40:37;-1.80;99.90
70145;DHT22;57510;51.068;3.872;2022-12-17T09:46:29;-1.70;99.90
70145;DHT22;57510;51.068;3.872;2022-12-17T09:49:17;-1.70;99.90
70145;DHT22;57510;51.068;3.872;2022-12-17T09:52:04;-1.60;99.90
70145;DHT22;57510;51.068;3.872;2022-12-17T09:54:57;-1.60;99.90
70145;DHT22;57510;51.068;3.872;2022-12-17T09:57:41;-1.60;99.90
70145;DHT22;57510;51.068;3.872;2022-12-17T10:00:26;-1.50;99.90
70145;DHT22;57510;51.068;3.872;2022-12-17T10:03:12;-1.40;99.90
70145;DHT22;57510;51.068;3.872;2022-12-17T10:05:57;-1.40;99.90
70145;DHT22;57510;51.068;3.872;2022-12-17T10:08:42;-1.40;99.90
70145;DHT22;57510;51.068;3.872;2022-12-17T10:11:28;-1.30;99.90
70145;DHT22;57510;51.068;3.872;2022-12-17T10:14:17;-1.20;99.90
70145;DHT22;57510;51.068;3.872;2022-12-17T10:17:02;-1.10;99.90
70145;DHT22;57510;51.068;3.872;2022-12-17T10:19:48;-1.00;99.90
70145;DHT22;57510;51.068;3.872;2022-12-17T10:22:40;-0.90;99.90
70145;DHT22;57510;51.068;3.872;2022-12-17T10:25:24;-0.80;99.90
70145;DHT22;57510;51.068;3.872;2022-12-17T10:28:12;-0.70;99.90
70145;DHT22;57510;51.068;3.872;2022-12-17T10:30:57;-0.70;99.90
70145;DHT22;57510;51.068;3.872;2022-12-17T10:33:41;-0.70;99.90
70145;DHT22;57510;51.068;3.872;2022-12-17T10:36:26;-0.60;99.90
70145;DHT22;57510;51.068;3.872;2022-12-17T10:39:15;-0.40;99.90
70145;DHT22;57510;51.068;3.872;2022-12-17T10:42:01;-0.40;99.90
70145;DHT22;57510;51.068;3.872;2022-12-17T10:44:45;-0.30;99.90
70145;DHT22;57510;51.068;3.872;2022-12-17T10:47:30;-0.20;99.90
70145;DHT22;57510;51.068;3.872;2022-12-17T10:50:17;-0.30;99.90
70145;DHT22;57510;51.068;3.872;2022-12-17T10:53:02;-0.20;99.90
70145;DHT22;57510;51.068;3.872;2022-12-17T10:58:31;-0.10;99.90
70145;DHT22;57510;51.068;3.872;2022-12-17T11:01:24;-0.10;99.90
70145;DHT22;57510;51.068;3.872;2022-12-17T11:04:20;0.00;99.90
70145;DHT22;57510;51.068;3.872;2022-12-17T11:07:04;0.00;99.90
70145;DHT22;57510;51.068;3.872;2022-12-17T11:09:50;0.20;99.90
70145;DHT22;57510;51.068;3.872;2022-12-17T11:15:44;0.30;99.90
70145;DHT22;57510;51.068;3.872;2022-12-17T11:18:31;0.40;99.90
70145;DHT22;57510;51.068;3.872;2022-12-17T11:21:27;0.30;99.90
70145;DHT22;57510;51.068;3.872;2022-12-17T11:24:12;0.40;99.90
70145;DHT22;57510;51.068;3.872;2022-12-17T11:27:00;0.40;99.90
70145;DHT22;57510;51.068;3.872;2022-12-17T11:29:45;0.50;99.90
70145;DHT22;57510;51.068;3.872;2022-12-17T11:32:40;0.50;99.90
70145;DHT22;57510;51.068;3.872;2022-12-17T11:35:47;0.50;99.90
70145;DHT22;57510;51.068;3.872;2022-12-17T11:38:39;0.50;99.90
70145;DHT22;57510;51.068;3.872;2022-12-17T11:41:29;0.50;99.90
70145;DHT22;57510;51.068;3.872;2022-12-17T11:44:32;0.50;99.90
70145;DHT22;57510;51.068;3.872;2022-12-17T11:47:29;0.60;99.90
70145;DHT22;57510;51.068;3.872;2022-12-17T11:54:04;0.70;99.90
70145;DHT22;57510;51.068;3.872;2022-12-17T11:56:51;0.70;99.90
70145;DHT22;57510;51.068;3.872;2022-12-17T11:59:39;0.70;99.90
70145;DHT22;57510;51.068;3.872;2022-12-17T12:08:23;0.70;99.90
70145;DHT22;57510;51.068;3.872;2022-12-17T12:17:20;0.80;99.90
70145;DHT22;57510;51.068;3.872;2022-12-17T12:23:17;0.80;99.90
70145;DHT22;57510;51.068;3.872;2022-12-17T12:31:54;0.90;99.90
70145;DHT22;57510;51.068;3.872;2022-12-17T12:34:43;0.90;99.90
70145;DHT22;57510;51.068;3.872;2022-12-17T12:37:28;0.90;99.90
70145;DHT22;57510;51.068;3.872;2022-12-17T12:43:05;1.00;99.90
70145;DHT22;57510;51.068;3.872;2022-12-17T12:51:24;1.20;99.90
70145;DHT22;57510;51.068;3.872;2022-12-17T13:03:24;1.10;99.90
70145;DHT22;57510;51.068;3.872;2022-12-17T13:06:09;1.10;99.90
70145;DHT22;57510;51.068;3.872;2022-12-17T13:08:35;1.00;99.90
70145;DHT22;57510;51.068;3.872;2022-12-17T13:11:09;1.10;99.90
70145;DHT22;57510;51.068;3.872;2022-12-17T13:13:35;1.10;99.90
70145;DHT22;57510;51.068;3.872;2022-12-17T13:16:50;1.10;99.90
70145;DHT22;57510;51.068;3.872;2022-12-17T13:18:59;1.10;99.90
70145;DHT22;57510;51.068;3.872;2022-12-17T13:21:25;1.10;99.90
70145;DHT22;57510;51.068;3.872;2022-12-17T13:23:51;1.10;99.90
70145;DHT22;57510;51.068;3.872;2022-12-17T13:26:21;1.10;99.90
70145;DHT22;57510;51.068;3.872;2022-12-17T13:29:09;1.00;99.90
70145;DHT22;57510;51.068;3.872;2022-12-17T13:31:42;1.10;99.90
70145;DHT22;57510;51.068;3.872;2022-12-17T13:42:02;1.30;99.70
70145;DHT22;57510;51.068;3.872;2022-12-17T13:44:30;1.40;99.60
70145;DHT22;57510;51.068;3.872;2022-12-17T13:46:58;1.30;99.70
70145;DHT22;57510;51.068;3.872;2022-12-17T13:49:27;1.30;99.70
70145;DHT22;57510;51.068;3.872;2022-12-17T13:52:03;1.40;99.60
70145;DHT22;57510;51.068;3.872;2022-12-17T13:54:29;1.40;99.50
70145;DHT22;57510;51.068;3.872;2022-12-17T13:57:05;1.30;99.50
70145;DHT22;57510;51.068;3.872;2022-12-17T13:59:30;1.30;99.50
70145;DHT22;57510;51.068;3.872;2022-12-17T14:01:56;1.30;99.30
70145;DHT22;57510;51.068;3.872;2022-12-17T14:04:23;1.30;99.40
70145;DHT22;57510;51.068;3.872;2022-12-17T14:06:49;1.20;99.30
70145;DHT22;57510;51.068;3.872;2022-12-17T14:09:15;1.10;99.50
70145;DHT22;57510;51.068;3.872;2022-12-17T14:11:46;1.10;99.50
70145;DHT22;57510;51.068;3.872;2022-12-17T14:14:36;1.10;99.50
70145;DHT22;57510;51.068;3.872;2022-12-17T14:17:02;1.10;99.40
70145;DHT22;57510;51.068;3.872;2022-12-17T14:19:28;1.10;99.30
70145;DHT22;57510;51.068;3.872;2022-12-17T14:21:54;1.10;99.30
70145;DHT22;57510;51.068;3.872;2022-12-17T14:24:21;1.00;99.40
70145;DHT22;57510;51.068;3.872;2022-12-17T14:26:59;0.90;99.50
70145;DHT22;57510;51.068;3.872;2022-12-17T14:29:27;1.00;99.70
70145;DHT22;57510;51.068;3.872;2022-12-17T14:34:22;1.00;99.40
70145;DHT22;57510;51.068;3.872;2022-12-17T14:36:52;1.10;99.40
70145;DHT22;57510;51.068;3.872;2022-12-17T14:41:51;0.90;99.50
70145;DHT22;57510;51.068;3.872;2022-12-17T14:44:46;0.80;99.70
70145;DHT22;57510;51.068;3.872;2022-12-17T14:47:22;0.90;99.80
70145;DHT22;57510;51.068;3.872;2022-12-17T14:49:53;0.90;99.70
70145;DHT22;57510;51.068;3.872;2022-12-17T14:52:29;0.90;99.70
70145;DHT22;57510;51.068;3.872;2022-12-17T14:54:58;0.90;99.60
70145;DHT22;57510;51.068;3.872;2022-12-17T14:57:24;0.90;99.60
70145;DHT22;57510;51.068;3.872;2022-12-17T14:59:50;0.80;99.60
70145;DHT22;57510;51.068;3.872;2022-12-17T15:02:19;0.80;99.60
70145;DHT22;57510;51.068;3.872;2022-12-17T15:04:47;0.70;99.60
70145;DHT22;57510;51.068;3.872;2022-12-17T15:07:13;0.70;99.60
70145;DHT22;57510;51.068;3.872;2022-12-17T15:09:42;0.70;99.60
70145;DHT22;57510;51.068;3.872;2022-12-17T15:12:08;0.60;99.60
70145;DHT22;57510;51.068;3.872;2022-12-17T15:14:34;0.60;99.60
70145;DHT22;57510;51.068;3.872;2022-12-17T15:17:00;0.50;99.50
70145;DHT22;57510;51.068;3.872;2022-12-17T15:19:26;0.40;99.60
70145;DHT22;57510;51.068;3.872;2022-12-17T15:21:52;0.40;99.60
70145;DHT22;57510;51.068;3.872;2022-12-17T15:24:19;0.30;99.70
70145;DHT22;57510;51.068;3.872;2022-12-17T15:26:46;0.30;99.70
70145;DHT22;57510;51.068;3.872;2022-12-17T15:29:12;0.20;99.80
70145;DHT22;57510;51.068;3.872;2022-12-17T15:31:38;0.10;99.90
70145;DHT22;57510;51.068;3.872;2022-12-17T15:34:03;0.10;99.80
70145;DHT22;57510;51.068;3.872;2022-12-17T15:36:30;0.00;99.90
70145;DHT22;57510;51.068;3.872;2022-12-17T15:38:56;0.00;99.90
70145;DHT22;57510;51.068;3.872;2022-12-17T15:41:22;-0.10;99.90
70145;DHT22;57510;51.068;3.872;2022-12-17T15:44:06;-0.20;99.90
70145;DHT22;57510;51.068;3.872;2022-12-17T15:46:32;-0.20;99.90
70145;DHT22;57510;51.068;3.872;2022-12-17T15:48:58;-0.20;99.90
70145;DHT22;57510;51.068;3.872;2022-12-17T15:51:24;-0.30;99.90
70145;DHT22;57510;51.068;3.872;2022-12-17T15:53:53;-0.30;99.90
70145;DHT22;57510;51.068;3.872;2022-12-17T15:56:23;-0.40;99.90
70145;DHT22;57510;51.068;3.872;2022-12-17T15:58:48;-0.50;99.90
70145;DHT22;57510;51.068;3.872;2022-12-17T16:01:15;-0.50;99.90
70145;DHT22;57510;51.068;3.872;2022-12-17T16:03:41;-0.50;99.90
70145;DHT22;57510;51.068;3.872;2022-12-17T16:06:07;-0.60;99.90
70145;DHT22;57510;51.068;3.872;2022-12-17T16:08:32;-0.60;99.90
70145;DHT22;57510;51.068;3.872;2022-12-17T16:10:58;-0.60;99.90
70145;DHT22;57510;51.068;3.872;2022-12-17T16:13:23;-0.60;99.90
70145;DHT22;57510;51.068;3.872;2022-12-17T16:15:56;-0.70;99.90
70145;DHT22;57510;51.068;3.872;2022-12-17T16:18:21;-0.70;99.90
70145;DHT22;57510;51.068;3.872;2022-12-17T16:20:48;-0.80;99.90
70145;DHT22;57510;51.068;3.872;2022-12-17T16:23:14;-0.80;99.90
70145;DHT22;57510;51.068;3.872;2022-12-17T16:25:39;-0.80;99.90
70145;DHT22;57510;51.068;3.872;2022-12-17T16:28:07;-0.90;99.90
70145;DHT22;57510;51.068;3.872;2022-12-17T16:30:34;-0.90;99.90
70145;DHT22;57510;51.068;3.872;2022-12-17T16:32:59;-0.90;99.90
70145;DHT22;57510;51.068;3.872;2022-12-17T16:35:25;-0.90;99.90
70145;DHT22;57510;51.068;3.872;2022-12-17T16:37:52;-0.90;99.90
70145;DHT22;57510;51.068;3.872;2022-12-17T16:40:18;-0.90;99.90
70145;DHT22;57510;51.068;3.872;2022-12-17T16:42:44;-0.90;99.90
70145;DHT22;57510;51.068;3.872;2022-12-17T16:45:09;-0.90;99.90
70145;DHT22;57510;51.068;3.872;2022-12-17T16:47:35;-0.90;99.90
70145;DHT22;57510;51.068;3.872;2022-12-17T16:50:00;-1.00;99.90
70145;DHT22;57510;51.068;3.872;2022-12-17T16:52:28;-0.90;99.90
70145;DHT22;57510;51.068;3.872;2022-12-17T16:54:56;-1.00;99.90
70145;DHT22;57510;51.068;3.872;2022-12-17T16:57:22;-1.00;99.90
70145;DHT22;57510;51.068;3.872;2022-12-17T16:59:47;-1.00;99.90
70145;DHT22;57510;51.068;3.872;2022-12-17T17:02:13;-1.00;99.90
70145;DHT22;57510;51.068;3.872;2022-12-17T17:04:40;-1.00;99.90
70145;DHT22;57510;51.068;3.872;2022-12-17T17:07:06;-1.00;99.90
70145;DHT22;57510;51.068;3.872;2022-12-17T17:09:31;-1.00;99.90
70145;DHT22;57510;51.068;3.872;2022-12-17T17:11:57;-0.90;99.90
70145;DHT22;57510;51.068;3.872;2022-12-17T17:14:24;-0.90;99.90
70145;DHT22;57510;51.068;3.872;2022-12-17T17:16:50;-0.90;99.90
70145;DHT22;57510;51.068;3.872;2022-12-17T17:19:16;-0.90;99.90
70145;DHT22;57510;51.068;3.872;2022-12-17T17:21:49;-0.90;99.90
70145;DHT22;57510;51.068;3.872;2022-12-17T17:24:16;-0.90;99.90
70145;DHT22;57510;51.068;3.872;2022-12-17T17:26:42;-0.90;99.90
70145;DHT22;57510;51.068;3.872;2022-12-17T17:29:08;-0.90;99.90
70145;DHT22;57510;51.068;3.872;2022-12-17T17:31:34;-0.80;99.90
70145;DHT22;57510;51.068;3.872;2022-12-17T17:34:00;-0.80;99.90
70145;DHT22;57510;51.068;3.872;2022-12-17T17:36:29;-0.80;99.90
70145;DHT22;57510;51.068;3.872;2022-12-17T17:38:58;-0.80;99.90
70145;DHT22;57510;51.068;3.872;2022-12-17T17:41:25;-0.80;99.90
70145;DHT22;57510;51.068;3.872;2022-12-17T17:43:56;-0.80;99.90
70145;DHT22;57510;51.068;3.872;2022-12-17T17:46:22;-0.80;99.90
70145;DHT22;57510;51.068;3.872;2022-12-17T17:48:49;-0.80;99.90
70145;DHT22;57510;51.068;3.872;2022-12-17T17:51:15;-0.80;99.90
70145;DHT22;57510;51.068;3.872;2022-12-17T17:53:43;-0.80;99.90
70145;DHT22;57510;51.068;3.872;2022-12-17T17:56:09;-0.90;99.90
70145;DHT22;57510;51.068;3.872;2022-12-17T17:58:41;-0.90;99.90
70145;DHT22;57510;51.068;3.872;2022-12-17T18:01:07;-0.90;99.90
70145;DHT22;57510;51.068;3.872;2022-12-17T18:03:34;-0.90;99.90
70145;DHT22;57510;51.068;3.872;2022-12-17T18:06:00;-0.90;99.90
70145;DHT22;57510;51.068;3.872;2022-12-17T18:08:28;-0.90;99.90
70145;DHT22;57510;51.068;3.872;2022-12-17T18:10:54;-0.90;99.90
70145;DHT22;57510;51.068;3.872;2022-12-17T18:13:20;-0.90;99.90
70145;DHT22;57510;51.068;3.872;2022-12-17T18:16:05;-0.90;99.90
70145;DHT22;57510;51.068;3.872;2022-12-17T18:18:31;-0.90;99.90